Time;durP1;ratioP1;P1;durP2;ratioP2;P2;SDS_P1;SDS_P2;PMS_P1;PMS_P2;Temp;Humidity;BMP_temperature;BMP_pressure;BME280_temperature;BME280_humidity;BME280_pressure;Samples;Min_cycle;Max_cycle;Signal;HPM_P1;HPM_P2
2022/10/08 00:01:05;;;;;;;;;;;12.90;99.90;;;;;;5013561;28;19920;-94
2022/10/08 00:03:32;;;;;;;;;;;12.90;99.90;;;;;;4996457;28;19928;-91
2022/10/08 00:05:58;;;;;;;;;;;12.90;99.90;;;;;;5012366;28;20390;-90
2022/10/08 00:08:25;;;;;;;;;;;12.90;99.90;;;;;;5029127;28;19920;-91
2022/10/08 00:10:55;;;;;;;;;;;12.90;99.90;;;;;;5028139;28;19928;-91
2022/10/08 00:13:21;;;;;;;;;;;12.90;99.90;;;;;;5013010;28;19936;-92
2022/10/08 00:15:46;;;;;;;;;;;12.80;99.90;;;;;;5011576;28;19925;-90
2022/10/08 00:18:12;;;;;;;;;;;12.90;99.90;;;;;;5013657;28;20354;-93
2022/10/08 00:20:37;;;;;;;;;;;12.90;99.90;;;;;;5012558;28;20628;-91
2022/10/08 00:23:03;;;;;;;;;;;12.80;99.90;;;;;;4996071;28;19928;-90
2022/10/08 00:25:29;;;;;;;;;;;12.80;99.90;;;;;;5012391;28;20334;-92
2022/10/08 00:27:54;;;;;;;;;;;13.20;99.90;;;;;;5012079;28;20023;-92
2022/10/08 00:30:20;;;;;;;;;;;12.80;99.90;;;;;;5013285;28;19975;-91
2022/10/08 00:32:45;;;;;;;;;;;13.40;99.90;;;;;;4996321;28;20427;-91
2022/10/08 00:35:11;;;;;;;;;;;12.80;99.90;;;;;;5018879;28;19921;-91
2022/10/08 00:37:37;;;;;;;;;;;12.80;99.90;;;;;;5023846;28;19931;-91
2022/10/08 00:40:02;;;;;;;;;;;13.40;99.90;;;;;;5023874;28;20361;-91
2022/10/08 00:42:28;;;;;;;;;;;12.80;99.90;;;;;;5024690;28;19920;-91
2022/10/08 00:44:55;;;;;;;;;;;12.80;99.90;;;;;;5007580;28;19984;-91
2022/10/08 00:47:36;;;;;;;;;;;12.70;99.90;;;;;;5023321;28;19943;-90
2022/10/08 00:50:08;;;;;;;;;;;12.70;99.90;;;;;;5031948;28;20408;-90
2022/10/08 00:52:34;;;;;;;;;;;12.70;99.90;;;;;;5023283;28;19921;-91
2022/10/08 00:55:05;;;;;;;;;;;12.70;99.90;;;;;;5024704;28;19921;-91
2022/10/08 00:57:31;;;;;;;;;;;12.70;99.90;;;;;;5008283;28;19927;-90
2022/10/08 00:59:57;;;;;;;;;;;12.70;99.90;;;;;;5022370;28;19948;-90
2022/10/08 01:02:22;;;;;;;;;;;12.40;99.90;;;;;;5007685;28;19920;-90
2022/10/08 01:04:48;;;;;;;;;;;12.70;99.90;;;;;;5044217;28;19960;-92
2022/10/08 01:07:31;;;;;;;;;;;12.90;99.90;;;;;;5022012;28;19921;-91
2022/10/08 01:10:10;;;;;;;;;;;12.70;99.90;;;;;;5041751;28;20387;-90
2022/10/08 01:12:45;;;;;;;;;;;12.70;99.90;;;;;;5017332;28;19921;-92
2022/10/08 01:15:31;;;;;;;;;;;12.70;99.90;;;;;;5016478;28;19921;-89
2022/10/08 01:18:00;;;;;;;;;;;12.70;99.90;;;;;;5033131;28;20336;-91
2022/10/08 01:20:28;;;;;;;;;;;12.70;99.90;;;;;;5016885;28;19920;-90
2022/10/08 01:23:13;;;;;;;;;;;12.70;99.90;;;;;;5016329;28;19994;-90
2022/10/08 01:25:55;;;;;;;;;;;12.70;99.90;;;;;;5016051;28;19921;-90
2022/10/08 01:28:32;;;;;;;;;;;13.60;99.90;;;;;;5014585;28;19932;-91
2022/10/08 01:31:05;;;;;;;;;;;12.70;99.90;;;;;;5032585;28;19927;-90
2022/10/08 01:33:44;;;;;;;;;;;12.60;99.90;;;;;;5014823;28;19931;-91
2022/10/08 01:36:11;;;;;;;;;;;12.70;99.90;;;;;;5031168;28;19982;-91
2022/10/08 01:38:40;;;;;;;;;;;12.50;99.90;;;;;;5015086;28;19925;-90
2022/10/08 01:41:07;;;;;;;;;;;12.60;99.90;;;;;;5030369;28;19967;-91
2022/10/08 01:43:34;;;;;;;;;;;12.90;99.90;;;;;;5032224;28;19964;-90
2022/10/08 01:46:02;;;;;;;;;;;13.40;99.90;;;;;;5014178;28;19920;-92
2022/10/08 01:48:31;;;;;;;;;;;12.50;99.90;;;;;;5015027;28;19920;-91
2022/10/08 01:51:16;;;;;;;;;;;12.40;99.90;;;;;;5014698;28;20464;-91
2022/10/08 01:53:44;;;;;;;;;;;12.40;99.90;;;;;;5014076;28;20300;-90
2022/10/08 01:56:12;;;;;;;;;;;12.30;99.90;;;;;;5015521;28;19927;-91
2022/10/08 01:58:41;;;;;;;;;;;12.20;99.90;;;;;;5013335;28;20372;-90
2022/10/08 02:01:09;;;;;;;;;;;12.20;99.90;;;;;;5015141;28;19943;-92
2022/10/08 02:03:35;;;;;;;;;;;12.10;99.90;;;;;;5031530;28;20027;-91
2022/10/08 02:06:03;;;;;;;;;;;13.50;99.90;;;;;;4998850;28;19951;-91
2022/10/08 02:08:28;;;;;;;;;;;12.10;99.90;;;;;;5018649;28;20390;-92
2022/10/08 02:10:54;;;;;;;;;;;13.40;99.90;;;;;;4998760;28;19996;-91
2022/10/08 02:13:20;;;;;;;;;;;12.00;99.90;;;;;;5015283;28;19947;-91
2022/10/08 02:15:49;;;;;;;;;;;12.10;99.90;;;;;;5039503;28;19984;-92
2022/10/08 02:18:21;;;;;;;;;;;12.00;99.90;;;;;;5025177;28;19975;-93
2022/10/08 02:21:02;;;;;;;;;;;12.00;99.90;;;;;;5042400;28;19971;-92
2022/10/08 02:23:31;;;;;;;;;;;11.90;99.90;;;;;;5042787;28;20368;-92
2022/10/08 02:26:00;;;;;;;;;;;11.90;99.90;;;;;;5015825;28;19924;-92
2022/10/08 02:28:36;;;;;;;;;;;11.80;99.90;;;;;;5015910;28;20284;-92
2022/10/08 02:31:07;;;;;;;;;;;11.80;99.90;;;;;;5017939;28;19921;-91
2022/10/08 02:33:56;;;;;;;;;;;11.80;99.90;;;;;;5033866;28;20021;-89
2022/10/08 02:36:25;;;;;;;;;;;11.80;99.90;;;;;;5007143;28;19928;-91
2022/10/08 02:38:56;;;;;;;;;;;11.70;99.90;;;;;;5015198;28;19976;-91
2022/10/08 02:41:25;;;;;;;;;;;11.70;99.90;;;;;;5029556;28;20020;-91
2022/10/08 02:43:51;;;;;;;;;;;12.60;99.90;;;;;;5015638;28;19968;-93
2022/10/08 02:46:19;;;;;;;;;;;12.40;99.90;;;;;;5014728;28;20272;-90
2022/10/08 02:48:49;;;;;;;;;;;11.70;99.90;;;;;;5014355;28;19926;-90
2022/10/08 02:51:17;;;;;;;;;;;11.70;99.90;;;;;;5014829;28;19921;-89
2022/10/08 02:53:44;;;;;;;;;;;12.80;99.90;;;;;;4999894;28;19921;-91
2022/10/08 02:56:23;;;;;;;;;;;11.60;99.90;;;;;;5002898;28;19925;-90
2022/10/08 02:58:48;;;;;;;;;;;11.60;99.90;;;;;;5014089;28;19920;-91
2022/10/08 03:01:25;;;;;;;;;;;11.60;99.90;;;;;;5031768;28;20391;-91
2022/10/08 03:03:59;;;;;;;;;;;11.50;99.90;;;;;;5014780;28;19921;-90
2022/10/08 03:06:26;;;;;;;;;;;11.50;99.90;;;;;;5013012;28;19974;-90
2022/10/08 03:08:54;;;;;;;;;;;11.60;99.90;;;;;;5030503;28;19928;-91
2022/10/08 03:11:19;;;;;;;;;;;11.50;99.90;;;;;;5012439;28;19920;-91
2022/10/08 03:13:46;;;;;;;;;;;11.80;99.90;;;;;;4998935;28;20021;-91
2022/10/08 03:16:14;;;;;;;;;;;11.50;99.90;;;;;;5013093;28;19921;-93
2022/10/08 03:18:39;;;;;;;;;;;12.00;99.90;;;;;;5031146;28;19947;-91
2022/10/08 03:21:11;;;;;;;;;;;11.90;99.90;;;;;;4996767;28;19920;-91
2022/10/08 03:23:37;;;;;;;;;;;12.20;99.90;;;;;;5012378;28;19976;-91
2022/10/08 03:26:03;;;;;;;;;;;11.40;99.90;;;;;;5029317;28;19920;-91
2022/10/08 03:28:29;;;;;;;;;;;11.40;99.90;;;;;;4995704;28;19967;-91
2022/10/08 03:30:54;;;;;;;;;;;12.10;99.90;;;;;;5014301;28;20023;-89
2022/10/08 03:33:20;;;;;;;;;;;11.40;99.90;;;;;;4995858;28;20296;-92
2022/10/08 03:35:46;;;;;;;;;;;11.40;99.90;;;;;;4997934;28;19926;-92
2022/10/08 03:38:14;;;;;;;;;;;11.40;99.90;;;;;;4996671;28;20014;-90
2022/10/08 03:40:40;;;;;;;;;;;11.30;99.90;;;;;;5030117;28;19983;-91
2022/10/08 03:43:06;;;;;;;;;;;11.30;99.90;;;;;;4996643;28;19920;-91
2022/10/08 03:45:31;;;;;;;;;;;11.30;99.90;;;;;;5011665;28;19925;-91
2022/10/08 03:47:57;;;;;;;;;;;11.30;99.90;;;;;;4997316;28;20448;-90
2022/10/08 03:50:22;;;;;;;;;;;11.30;99.90;;;;;;5011450;28;19920;-91
2022/10/08 03:52:48;;;;;;;;;;;11.30;99.90;;;;;;4996522;28;19931;-91
2022/10/08 03:55:14;;;;;;;;;;;12.00;99.90;;;;;;4995851;28;19921;-91
2022/10/08 03:57:39;;;;;;;;;;;11.40;99.90;;;;;;5012041;28;20015;-92
2022/10/08 04:00:05;;;;;;;;;;;11.40;99.90;;;;;;4995936;28;19927;-92
2022/10/08 04:02:31;;;;;;;;;;;11.40;99.90;;;;;;4995697;28;19931;-91
2022/10/08 04:04:57;;;;;;;;;;;11.40;99.90;;;;;;4996413;28;19931;-90
2022/10/08 04:07:22;;;;;;;;;;;11.30;99.90;;;;;;5011188;28;19920;-92
2022/10/08 04:09:48;;;;;;;;;;;11.80;99.90;;;;;;4996943;28;19943;-91
2022/10/08 04:12:14;;;;;;;;;;;11.30;99.90;;;;;;5011956;28;19921;-92
2022/10/08 04:14:39;;;;;;;;;;;11.30;99.90;;;;;;4996226;28;19924;-91
2022/10/08 04:17:05;;;;;;;;;;;11.40;99.90;;;;;;5011920;28;20016;-91
2022/10/08 04:19:30;;;;;;;;;;;11.20;99.90;;;;;;4995389;28;19925;-92
2022/10/08 04:21:56;;;;;;;;;;;11.20;99.90;;;;;;5012544;28;19924;-91
2022/10/08 04:24:21;;;;;;;;;;;12.50;99.90;;;;;;5011552;28;20013;-92
2022/10/08 04:26:47;;;;;;;;;;;11.20;99.90;;;;;;5030482;28;19921;-92
2022/10/08 04:29:13;;;;;;;;;;;11.90;99.90;;;;;;4994951;28;20376;-91
2022/10/08 04:31:39;;;;;;;;;;;11.20;99.90;;;;;;4996762;28;20027;-91
2022/10/08 04:34:04;;;;;;;;;;;11.30;99.90;;;;;;4995858;28;19978;-91
2022/10/08 04:36:30;;;;;;;;;;;11.50;99.90;;;;;;4996212;28;20011;-92
2022/10/08 04:38:55;;;;;;;;;;;11.20;99.90;;;;;;4999978;28;19928;-91
2022/10/08 04:41:22;;;;;;;;;;;11.20;99.90;;;;;;5015687;28;20403;-93
2022/10/08 04:43:48;;;;;;;;;;;12.30;99.90;;;;;;5017239;28;19969;-89
2022/10/08 04:46:15;;;;;;;;;;;11.40;99.90;;;;;;4999562;28;20323;-90
2022/10/08 04:48:45;;;;;;;;;;;11.70;99.90;;;;;;5017799;28;20407;-90
2022/10/08 04:51:10;;;;;;;;;;;11.10;99.90;;;;;;5033549;28;19921;-90
2022/10/08 04:53:36;;;;;;;;;;;11.00;99.90;;;;;;5024450;28;19994;-90
2022/10/08 04:56:13;;;;;;;;;;;11.00;99.90;;;;;;5017596;28;19944;-90
2022/10/08 04:58:39;;;;;;;;;;;11.00;99.90;;;;;;5029321;28;19917;-92
2022/10/08 05:01:05;;;;;;;;;;;11.00;99.90;;;;;;5026522;28;19921;-92
2022/10/08 05:03:34;;;;;;;;;;;11.00;99.90;;;;;;5016626;28;19924;-92
2022/10/08 05:06:00;;;;;;;;;;;11.40;99.90;;;;;;5039411;28;19972;-91
2022/10/08 05:08:27;;;;;;;;;;;11.00;99.90;;;;;;5039328;28;19916;-92
2022/10/08 05:10:52;;;;;;;;;;;12.10;99.90;;;;;;5039370;28;19916;-92
2022/10/08 05:13:18;;;;;;;;;;;10.90;99.90;;;;;;5040033;28;19917;-95
2022/10/08 05:15:43;;;;;;;;;;;12.10;99.90;;;;;;5022721;28;19983;-92
2022/10/08 05:18:09;;;;;;;;;;;11.50;99.90;;;;;;5039902;28;19917;-92
2022/10/08 05:20:35;;;;;;;;;;;11.70;99.90;;;;;;5039101;28;19951;-92
2022/10/08 05:23:01;;;;;;;;;;;10.90;99.90;;;;;;5040163;28;19917;-92
2022/10/08 05:25:30;;;;;;;;;;;11.70;99.90;;;;;;5022814;28;19916;-91
2022/10/08 05:27:55;;;;;;;;;;;12.00;99.90;;;;;;5039476;28;19928;-91
2022/10/08 05:30:21;;;;;;;;;;;10.80;99.90;;;;;;5022353;28;19931;-92
2022/10/08 05:32:46;;;;;;;;;;;10.70;99.90;;;;;;5017726;28;19947;-91
2022/10/08 05:35:12;;;;;;;;;;;10.70;99.90;;;;;;5002992;28;19920;-91
2022/10/08 05:37:37;;;;;;;;;;;10.70;99.90;;;;;;4999197;28;19932;-92
2022/10/08 05:40:03;;;;;;;;;;;10.70;99.90;;;;;;5001908;28;19920;-92
2022/10/08 05:42:29;;;;;;;;;;;11.30;99.90;;;;;;5015309;28;19967;-92
2022/10/08 05:44:54;;;;;;;;;;;10.70;99.90;;;;;;5000163;28;19960;-92
2022/10/08 05:47:20;;;;;;;;;;;11.20;99.90;;;;;;5017875;28;20368;-92
2022/10/08 05:49:45;;;;;;;;;;;11.10;99.90;;;;;;4999457;28;19969;-92
2022/10/08 05:52:11;;;;;;;;;;;10.60;99.90;;;;;;4999702;28;19975;-90
2022/10/08 05:54:37;;;;;;;;;;;10.60;99.90;;;;;;4996989;28;20283;-82
2022/10/08 05:57:02;;;;;;;;;;;10.60;99.90;;;;;;5030654;28;20015;-86
2022/10/08 05:59:28;;;;;;;;;;;10.60;99.90;;;;;;5012809;28;19927;-85
2022/10/08 06:01:53;;;;;;;;;;;10.50;99.90;;;;;;5013638;28;19921;-85
2022/10/08 06:04:19;;;;;;;;;;;11.20;99.90;;;;;;4997195;28;19921;-86
2022/10/08 06:06:44;;;;;;;;;;;11.50;99.90;;;;;;5013702;28;20407;-86
2022/10/08 06:09:15;;;;;;;;;;;10.50;99.90;;;;;;5014374;28;20283;-87
2022/10/08 06:11:41;;;;;;;;;;;11.60;99.90;;;;;;5031475;28;19920;-87
2022/10/08 06:14:08;;;;;;;;;;;10.60;99.90;;;;;;5017001;28;20098;-87
2022/10/08 06:16:34;;;;;;;;;;;11.30;99.90;;;;;;5020701;28;20394;-87
2022/10/08 06:19:01;;;;;;;;;;;11.90;99.90;;;;;;5005906;28;19921;-88
2022/10/08 06:21:28;;;;;;;;;;;10.80;99.90;;;;;;5037455;28;19931;-88
2022/10/08 06:23:58;;;;;;;;;;;10.80;99.90;;;;;;5026143;28;19920;-91
2022/10/08 06:26:26;;;;;;;;;;;10.50;99.90;;;;;;5046797;28;19931;-93
2022/10/08 06:28:51;;;;;;;;;;;10.60;99.90;;;;;;5026473;28;20233;-92
2022/10/08 06:31:17;;;;;;;;;;;10.60;99.90;;;;;;5021697;28;20240;-91
2022/10/08 06:33:43;;;;;;;;;;;10.60;99.90;;;;;;5005948;28;19920;-94
2022/10/08 06:36:13;;;;;;;;;;;10.60;99.90;;;;;;5018016;28;19921;-92
2022/10/08 06:38:38;;;;;;;;;;;10.60;99.90;;;;;;5017803;28;19927;-92
2022/10/08 06:41:04;;;;;;;;;;;10.60;99.90;;;;;;5017946;28;19956;-93
2022/10/08 06:43:30;;;;;;;;;;;10.70;99.90;;;;;;5000212;28;19921;-89
2022/10/08 06:45:58;;;;;;;;;;;10.80;99.90;;;;;;5013484;28;19928;-91
2022/10/08 06:48:25;;;;;;;;;;;11.90;99.90;;;;;;5014026;28;19928;-90
2022/10/08 06:51:04;;;;;;;;;;;12.00;99.90;;;;;;5029794;28;19927;-90
2022/10/08 06:53:30;;;;;;;;;;;11.30;99.90;;;;;;5029834;28;20289;-88
2022/10/08 06:55:59;;;;;;;;;;;11.50;99.90;;;;;;5012318;28;19928;-89
2022/10/08 06:58:25;;;;;;;;;;;11.60;99.90;;;;;;5012661;28;19921;-91
2022/10/08 07:01:05;;;;;;;;;;;12.30;99.90;;;;;;5012572;28;19944;-88
2022/10/08 07:03:31;;;;;;;;;;;11.70;99.90;;;;;;5028045;28;19942;-89
2022/10/08 07:06:00;;;;;;;;;;;11.70;99.90;;;;;;5030307;28;20461;-90
2022/10/08 07:08:27;;;;;;;;;;;11.60;99.90;;;;;;5013793;28;19921;-88
2022/10/08 07:10:53;;;;;;;;;;;11.60;99.90;;;;;;5012993;28;20007;-88
2022/10/08 07:13:18;;;;;;;;;;;12.40;99.90;;;;;;5014612;28;20399;-88
2022/10/08 07:15:44;;;;;;;;;;;11.50;99.90;;;;;;5031643;28;19921;-88
2022/10/08 07:18:11;;;;;;;;;;;11.50;99.90;;;;;;5014209;28;19998;-88
2022/10/08 07:20:37;;;;;;;;;;;11.50;99.90;;;;;;4998405;28;19929;-90
2022/10/08 07:23:03;;;;;;;;;;;11.50;99.90;;;;;;5017289;28;20011;-88
2022/10/08 07:25:29;;;;;;;;;;;11.50;99.90;;;;;;5000012;28;19974;-88
2022/10/08 07:27:55;;;;;;;;;;;12.10;99.90;;;;;;5030162;28;19921;-85
2022/10/08 07:30:20;;;;;;;;;;;11.60;99.90;;;;;;5011577;28;19946;-86
2022/10/08 07:32:46;;;;;;;;;;;11.70;99.90;;;;;;5028390;28;19921;-85
2022/10/08 07:35:12;;;;;;;;;;;12.60;99.90;;;;;;5016301;28;20383;-86
2022/10/08 07:37:40;;;;;;;;;;;11.70;99.90;;;;;;5003601;28;19920;-89
2022/10/08 07:40:06;;;;;;;;;;;11.80;99.90;;;;;;5036958;28;19967;-88
2022/10/08 07:42:32;;;;;;;;;;;11.90;99.90;;;;;;5035378;28;19921;-87
2022/10/08 07:44:57;;;;;;;;;;;11.90;99.90;;;;;;5036719;28;20015;-86
2022/10/08 07:47:23;;;;;;;;;;;12.00;99.90;;;;;;5033898;28;20403;-87
2022/10/08 07:49:48;;;;;;;;;;;12.00;99.90;;;;;;5001938;28;19921;-84
2022/10/08 07:52:14;;;;;;;;;;;12.00;99.90;;;;;;5014940;28;20410;-87
2022/10/08 07:54:41;;;;;;;;;;;11.90;99.90;;;;;;5014536;28;19920;-94
2022/10/08 07:57:07;;;;;;;;;;;12.00;99.90;;;;;;5020510;28;20074;-91
2022/10/08 07:59:32;;;;;;;;;;;12.20;99.90;;;;;;5004108;28;19960;-92
2022/10/08 08:01:58;;;;;;;;;;;12.40;99.90;;;;;;5020011;28;19932;-90
2022/10/08 08:04:24;;;;;;;;;;;12.50;99.90;;;;;;5002651;28;19947;-91
2022/10/08 08:06:51;;;;;;;;;;;12.90;99.90;;;;;;5019696;28;19967;-91
2022/10/08 08:09:17;;;;;;;;;;;12.60;99.90;;;;;;5000625;28;20097;-90
2022/10/08 08:11:43;;;;;;;;;;;12.60;99.90;;;;;;5019551;28;19993;-82
2022/10/08 08:14:08;;;;;;;;;;;12.80;99.90;;;;;;5030279;28;20439;-88
2022/10/08 08:16:34;;;;;;;;;;;13.10;99.90;;;;;;5013177;28;19928;-84
2022/10/08 08:19:00;;;;;;;;;;;13.00;99.90;;;;;;5028610;28;19921;-84
2022/10/08 08:21:27;;;;;;;;;;;13.10;99.90;;;;;;5015129;28;19921;-86
2022/10/08 08:23:54;;;;;;;;;;;13.30;99.90;;;;;;5019403;28;19921;-86
2022/10/08 08:26:21;;;;;;;;;;;13.50;99.90;;;;;;5018789;28;19920;-87
2022/10/08 08:28:54;;;;;;;;;;;14.50;99.90;;;;;;5037173;28;19920;-88
2022/10/08 08:31:25;;;;;;;;;;;13.80;99.90;;;;;;5022457;28;19967;-87
2022/10/08 08:33:52;;;;;;;;;;;14.10;99.90;;;;;;5021508;28;19966;-87
2022/10/08 08:36:18;;;;;;;;;;;14.30;99.90;;;;;;5039148;28;19950;-89
2022/10/08 08:38:45;;;;;;;;;;;14.30;99.90;;;;;;5021806;28;19921;-88
2022/10/08 08:41:21;;;;;;;;;;;14.20;99.90;;;;;;5016998;28;19921;-89
2022/10/08 08:43:48;;;;;;;;;;;14.60;99.90;;;;;;5014222;28;19932;-88
2022/10/08 08:46:16;;;;;;;;;;;13.80;99.90;;;;;;5032531;28;19950;-88
2022/10/08 08:48:42;;;;;;;;;;;13.60;99.90;;;;;;5013886;28;20223;-88
2022/10/08 08:51:09;;;;;;;;;;;13.50;99.90;;;;;;5012592;28;20257;-89
2022/10/08 08:53:34;;;;;;;;;;;13.40;99.90;;;;;;4997444;28;20372;-89
2022/10/08 08:56:02;;;;;;;;;;;13.20;99.90;;;;;;4997485;28;19921;-87
2022/10/08 08:58:40;;;;;;;;;;;13.10;99.90;;;;;;5011435;28;19928;-87
2022/10/08 09:01:12;;;;;;;;;;;13.10;99.90;;;;;;5011208;28;19920;-86
2022/10/08 09:03:40;;;;;;;;;;;13.20;99.90;;;;;;5010749;28;19948;-85
2022/10/08 09:06:14;;;;;;;;;;;13.30;99.90;;;;;;5011673;28;20011;-87
2022/10/08 09:08:47;;;;;;;;;;;13.40;99.90;;;;;;5009874;28;19948;-87
2022/10/08 09:11:13;;;;;;;;;;;13.50;99.90;;;;;;5011861;28;19920;-89
2022/10/08 09:14:02;;;;;;;;;;;13.60;99.90;;;;;;5013286;28;19920;-89
2022/10/08 09:16:28;;;;;;;;;;;13.80;99.90;;;;;;5028406;28;20293;-87
2022/10/08 09:18:54;;;;;;;;;;;13.80;99.90;;;;;;4995309;28;19921;-89
2022/10/08 09:21:20;;;;;;;;;;;14.10;99.90;;;;;;5010992;28;19921;-90
2022/10/08 09:23:46;;;;;;;;;;;14.20;99.90;;;;;;4998397;28;20004;-89
2022/10/08 09:26:22;;;;;;;;;;;14.40;99.90;;;;;;5015549;28;19920;-87
2022/10/08 09:28:51;;;;;;;;;;;14.60;99.90;;;;;;5014752;28;19924;-88
2022/10/08 09:31:26;;;;;;;;;;;14.90;99.90;;;;;;5032140;28;19952;-89
2022/10/08 09:33:57;;;;;;;;;;;15.00;99.90;;;;;;5014679;28;19921;-87
2022/10/08 09:36:32;;;;;;;;;;;15.10;99.90;;;;;;5015186;28;19920;-88
2022/10/08 09:38:58;;;;;;;;;;;15.00;99.90;;;;;;5014216;28;19925;-89
2022/10/08 09:41:27;;;;;;;;;;;15.00;99.90;;;;;;5014764;28;19920;-88
2022/10/08 09:44:10;;;;;;;;;;;15.30;99.90;;;;;;5014308;28;19921;-88
2022/10/08 09:46:35;;;;;;;;;;;15.00;99.90;;;;;;5014673;28;19967;-88
2022/10/08 09:49:20;;;;;;;;;;;15.00;99.90;;;;;;4996949;28;19938;-88
2022/10/08 09:51:47;;;;;;;;;;;15.10;99.90;;;;;;5030163;28;19921;-88
2022/10/08 09:54:16;;;;;;;;;;;14.90;99.90;;;;;;5013840;28;19927;-89
2022/10/08 09:56:48;;;;;;;;;;;15.10;99.90;;;;;;5012894;28;19921;-88
2022/10/08 09:59:16;;;;;;;;;;;14.60;99.90;;;;;;5013255;28;19928;-88
2022/10/08 10:01:45;;;;;;;;;;;14.70;99.90;;;;;;5013294;28;19921;-89
2022/10/08 10:04:17;;;;;;;;;;;14.80;99.90;;;;;;4996829;28;19921;-88
2022/10/08 10:06:45;;;;;;;;;;;14.70;99.90;;;;;;5013910;28;20276;-89
2022/10/08 10:09:10;;;;;;;;;;;14.80;99.90;;;;;;5012717;28;19927;-88
2022/10/08 10:11:46;;;;;;;;;;;15.10;99.90;;;;;;5012863;28;20011;-88
2022/10/08 10:14:18;;;;;;;;;;;15.10;99.90;;;;;;5012768;28;20403;-88
2022/10/08 10:16:44;;;;;;;;;;;15.30;99.90;;;;;;5012822;28;19920;-89
2022/10/08 10:19:13;;;;;;;;;;;15.40;99.90;;;;;;5013063;28;19975;-88
2022/10/08 10:21:45;;;;;;;;;;;15.60;99.90;;;;;;5012589;28;20025;-85
2022/10/08 10:24:14;;;;;;;;;;;15.80;99.90;;;;;;5013527;28;19927;-88
2022/10/08 10:26:41;;;;;;;;;;;16.00;99.90;;;;;;5011549;28;20007;-88
2022/10/08 10:29:16;;;;;;;;;;;16.20;99.90;;;;;;5013038;28;19921;-87
2022/10/08 10:31:44;;;;;;;;;;;16.20;99.90;;;;;;5028600;28;19921;-89
2022/10/08 10:34:18;;;;;;;;;;;16.30;99.90;;;;;;5012208;28;19928;-89
2022/10/08 10:36:58;;;;;;;;;;;16.50;99.90;;;;;;5012585;28;19921;-90
2022/10/08 10:39:32;;;;;;;;;;;16.60;99.90;;;;;;5020618;28;19916;-91
2022/10/08 10:42:02;;;;;;;;;;;16.70;99.90;;;;;;5016694;28;19925;-93
2022/10/08 10:44:32;;;;;;;;;;;16.70;99.90;;;;;;5022226;28;19959;-91
2022/10/08 10:46:58;;;;;;;;;;;16.70;99.90;;;;;;5015358;28;19947;-88
2022/10/08 10:49:31;;;;;;;;;;;16.80;99.90;;;;;;5016946;28;19920;-90
2022/10/08 10:52:09;;;;;;;;;;;16.90;99.90;;;;;;5022073;28;19920;-90
2022/10/08 10:54:44;;;;;;;;;;;17.10;99.90;;;;;;5019393;28;20015;-90
2022/10/08 10:57:15;;;;;;;;;;;17.30;99.90;;;;;;5022232;28;19921;-92
2022/10/08 10:59:46;;;;;;;;;;;17.10;99.90;;;;;;5016181;28;20023;-93
2022/10/08 11:02:38;;;;;;;;;;;16.80;99.90;;;;;;5024009;28;19920;-91
2022/10/08 11:05:16;;;;;;;;;;;16.30;99.90;;;;;;5038027;28;19921;-87
2022/10/08 11:07:42;;;;;;;;;;;15.80;99.90;;;;;;5018334;28;20372;-93
2022/10/08 11:10:15;;;;;;;;;;;15.40;99.90;;;;;;5015406;28;19931;-92
2022/10/08 11:12:41;;;;;;;;;;;15.20;99.90;;;;;;5014760;28;20390;-92
2022/10/08 11:15:26;;;;;;;;;;;15.00;99.90;;;;;;5014458;28;19920;-92
2022/10/08 11:17:52;;;;;;;;;;;14.80;99.90;;;;;;4982857;28;19921;-91
2022/10/08 11:20:18;;;;;;;;;;;14.80;99.90;;;;;;5015186;28;19965;-92
2022/10/08 11:22:47;;;;;;;;;;;14.40;99.90;;;;;;5012491;28;19921;-92
2022/10/08 11:25:13;;;;;;;;;;;14.70;99.90;;;;;;5013133;28;19921;-90
2022/10/08 11:27:41;;;;;;;;;;;15.00;99.90;;;;;;5012099;28;19928;-90
2022/10/08 11:30:16;;;;;;;;;;;14.90;99.90;;;;;;5012135;28;19985;-88
2022/10/08 11:32:49;;;;;;;;;;;14.70;99.90;;;;;;5011822;28;19920;-88
2022/10/08 11:35:32;;;;;;;;;;;14.60;99.90;;;;;;5027221;28;19982;-88
2022/10/08 11:38:05;;;;;;;;;;;14.40;99.90;;;;;;5028212;28;19987;-88
2022/10/08 11:40:35;;;;;;;;;;;14.20;99.90;;;;;;5011705;28;20078;-89
2022/10/08 11:43:06;;;;;;;;;;;14.00;99.90;;;;;;5011779;28;19920;-89
2022/10/08 11:45:35;;;;;;;;;;;13.80;99.90;;;;;;5011336;28;20003;-88
2022/10/08 11:48:21;;;;;;;;;;;13.70;99.90;;;;;;5010244;28;19920;-89
2022/10/08 11:50:46;;;;;;;;;;;13.50;99.90;;;;;;5011159;28;19967;-88
2022/10/08 11:53:17;;;;;;;;;;;13.30;99.90;;;;;;4994432;28;19924;-89
2022/10/08 11:55:48;;;;;;;;;;;13.20;99.90;;;;;;5011365;28;19928;-88
2022/10/08 11:58:20;;;;;;;;;;;13.10;99.90;;;;;;5011288;28;19928;-87
2022/10/08 12:00:46;;;;;;;;;;;13.10;99.90;;;;;;5031170;28;20409;-86
2022/10/08 12:03:20;;;;;;;;;;;13.10;99.90;;;;;;4999491;28;19927;-89
2022/10/08 12:05:49;;;;;;;;;;;13.50;99.90;;;;;;5021344;28;20003;-88
2022/10/08 12:08:34;;;;;;;;;;;13.80;99.90;;;;;;5024775;28;19921;-89
2022/10/08 12:11:19;;;;;;;;;;;14.10;99.90;;;;;;5023240;28;19928;-88
2022/10/08 12:14:05;;;;;;;;;;;14.60;99.90;;;;;;5023907;28;19920;-90
2022/10/08 12:16:46;;;;;;;;;;;14.80;99.90;;;;;;5037876;28;20015;-89
2022/10/08 12:19:30;;;;;;;;;;;15.10;99.90;;;;;;5018195;28;19920;-89
2022/10/08 12:21:56;;;;;;;;;;;15.50;99.90;;;;;;5013679;28;20416;-90
2022/10/08 12:24:37;;;;;;;;;;;15.70;99.90;;;;;;5013829;28;19952;-90
2022/10/08 12:27:23;;;;;;;;;;;15.90;99.90;;;;;;5014065;28;19920;-88
2022/10/08 12:30:01;;;;;;;;;;;16.00;99.90;;;;;;5019054;28;19921;-90
2022/10/08 12:32:29;;;;;;;;;;;16.10;99.90;;;;;;5029544;28;20464;-90
2022/10/08 12:34:55;;;;;;;;;;;16.00;99.90;;;;;;5012785;28;19967;-90
2022/10/08 12:37:21;;;;;;;;;;;15.80;99.90;;;;;;5012236;28;19921;-90
2022/10/08 12:39:47;;;;;;;;;;;15.60;99.90;;;;;;5012139;28;19967;-90
2022/10/08 12:42:24;;;;;;;;;;;15.40;99.90;;;;;;5028315;28;19920;-89
2022/10/08 12:45:07;;;;;;;;;;;15.20;99.90;;;;;;5012697;28;19925;-89
2022/10/08 12:47:39;;;;;;;;;;;15.00;99.90;;;;;;5012402;28;20384;-90
2022/10/08 12:50:16;;;;;;;;;;;14.80;99.90;;;;;;5012077;28;19920;-89
2022/10/08 12:52:42;;;;;;;;;;;14.60;99.90;;;;;;5012819;28;19920;-90
2022/10/08 12:55:16;;;;;;;;;;;14.70;99.90;;;;;;5011964;28;20465;-90
2022/10/08 12:57:42;;;;;;;;;;;14.60;99.90;;;;;;5028761;28;19921;-90
2022/10/08 13:00:17;;;;;;;;;;;15.00;99.90;;;;;;4999616;28;19925;-89
2022/10/08 13:02:43;;;;;;;;;;;14.40;99.90;;;;;;5016076;28;20310;-89
2022/10/08 13:05:22;;;;;;;;;;;14.30;99.90;;;;;;5032537;28;19990;-89
2022/10/08 13:07:48;;;;;;;;;;;14.30;99.90;;;;;;5031643;28;19920;-85
2022/10/08 13:10:18;;;;;;;;;;;14.30;99.90;;;;;;5030316;28;19927;-85
2022/10/08 13:12:57;;;;;;;;;;;14.20;99.90;;;;;;5031166;28;20380;-84
2022/10/08 13:15:24;;;;;;;;;;;14.30;99.90;;;;;;5013459;28;19921;-85
2022/10/08 13:17:50;;;;;;;;;;;14.50;99.90;;;;;;5015525;28;19928;-84
2022/10/08 13:20:18;;;;;;;;;;;14.60;99.90;;;;;;5015172;28;19941;-83
2022/10/08 13:22:43;;;;;;;;;;;14.70;99.90;;;;;;5049411;28;19920;-82
2022/10/08 13:25:28;;;;;;;;;;;15.60;99.90;;;;;;5016045;28;19974;-86
2022/10/08 13:28:26;;;;;;;;;;;14.90;99.90;;;;;;5034633;28;19944;-86
2022/10/08 13:30:56;;;;;;;;;;;15.00;99.90;;;;;;5001193;28;19920;-87
2022/10/08 13:33:23;;;;;;;;;;;15.10;99.90;;;;;;5015824;28;20396;-86
2022/10/08 13:35:53;;;;;;;;;;;15.20;99.90;;;;;;5017582;28;19921;-88
2022/10/08 13:38:22;;;;;;;;;;;15.30;99.90;;;;;;5018291;28;20402;-86
2022/10/08 13:40:52;;;;;;;;;;;15.30;99.90;;;;;;5016935;28;19924;-89
2022/10/08 13:43:18;;;;;;;;;;;15.40;99.90;;;;;;5035547;28;19970;-90
2022/10/08 13:45:44;;;;;;;;;;;15.60;99.90;;;;;;5001783;28;19925;-91
2022/10/08 13:48:12;;;;;;;;;;;15.70;99.90;;;;;;5002525;28;19977;-90
2022/10/08 13:50:42;;;;;;;;;;;16.10;99.90;;;;;;5034454;28;19963;-91
2022/10/08 13:53:10;;;;;;;;;;;15.90;99.90;;;;;;5019048;28;19925;-91
2022/10/08 13:55:35;;;;;;;;;;;16.00;99.90;;;;;;5003891;28;20740;-91
2022/10/08 13:58:02;;;;;;;;;;;16.00;99.90;;;;;;5018491;28;19920;-90
2022/10/08 14:00:38;;;;;;;;;;;16.00;99.90;;;;;;5051935;28;19924;-89
2022/10/08 14:03:07;;;;;;;;;;;16.10;99.90;;;;;;5035101;28;19975;-92
2022/10/08 14:05:35;;;;;;;;;;;15.90;99.90;;;;;;5018922;28;19959;-91
2022/10/08 14:08:02;;;;;;;;;;;15.70;99.90;;;;;;5018202;28;19921;-92
2022/10/08 14:10:28;;;;;;;;;;;15.50;99.90;;;;;;5017418;28;19924;-91
2022/10/08 14:12:53;;;;;;;;;;;15.30;99.90;;;;;;5016338;28;19931;-92
2022/10/08 14:15:19;;;;;;;;;;;15.10;99.90;;;;;;5015710;28;20541;-91
2022/10/08 14:17:45;;;;;;;;;;;15.00;99.90;;;;;;5002383;28;19979;-91
2022/10/08 14:20:11;;;;;;;;;;;14.90;99.90;;;;;;4999494;28;19964;-92
2022/10/08 14:22:42;;;;;;;;;;;14.80;99.90;;;;;;5017091;28;19921;-85
2022/10/08 14:25:16;;;;;;;;;;;14.70;99.90;;;;;;4995798;28;20288;-85
2022/10/08 14:27:41;;;;;;;;;;;14.10;99.90;;;;;;5014262;28;19931;-86